Time;durP1;ratioP1;P1;durP2;ratioP2;P2;SDS_P1;SDS_P2;PMS_P1;PMS_P2;Temp;Humidity;BMP_temperature;BMP_pressure;BME280_temperature;BME280_humidity;BME280_pressure;Samples;Min_cycle;Max_cycle;Signal;HPM_P1;HPM_P2
2023/07/24 00:01:54;;;;;;;5.35;3.67;;;23.80;44.70;;;;;;5067326;27;116170;-80
2023/07/24 00:04:21;;;;;;;6.10;4.13;;;23.80;44.40;;;;;;5067553;27;114652;-81
2023/07/24 00:06:48;;;;;;;7.00;4.28;;;23.90;45.50;;;;;;5049980;27;114367;-81
2023/07/24 00:09:15;;;;;;;6.60;4.03;;;23.80;45.20;;;;;;5068274;27;114142;-81
2023/07/24 00:11:42;;;;;;;7.20;4.20;;;23.90;45.70;;;;;;5067432;27;114946;-81
2023/07/24 00:14:09;;;;;;;6.28;4.20;;;23.90;45.50;;;;;;5031660;27;116514;-81
2023/07/24 00:16:36;;;;;;;7.78;3.90;;;23.90;46.40;;;;;;5050050;27;114173;-81
2023/07/24 00:19:04;;;;;;;7.22;4.40;;;23.80;46.50;;;;;;5068252;27;114477;-81
2023/07/24 00:21:31;;;;;;;6.22;4.07;;;23.80;46.50;;;;;;5015462;27;114861;-81
2023/07/24 00:23:58;;;;;;;6.13;4.03;;;23.80;46.80;;;;;;5049189;27;114526;-81
2023/07/24 00:26:25;;;;;;;5.13;3.63;;;23.70;47.20;;;;;;5068056;27;114808;-81
2023/07/24 00:28:52;;;;;;;6.35;3.85;;;23.70;47.50;;;;;;5016656;27;114239;-81
2023/07/24 00:31:20;;;;;;;7.07;4.38;;;23.60;47.60;;;;;;5048961;27;115507;-81
2023/07/24 00:33:47;;;;;;;6.47;3.88;;;23.50;48.10;;;;;;5014499;27;117428;-81
2023/07/24 00:36:14;;;;;;;7.30;4.03;;;23.50;46.40;;;;;;5049428;27;114314;-81
2023/07/24 00:38:41;;;;;;;7.00;4.00;;;23.50;48.10;;;;;;5016094;27;114279;-81
2023/07/24 00:41:08;;;;;;;7.78;3.97;;;23.50;48.20;;;;;;5048414;27;118398;-81
2023/07/24 00:43:35;;;;;;;7.22;4.13;;;23.50;46.60;;;;;;5052272;27;115962;-81
2023/07/24 00:46:02;;;;;;;5.68;3.95;;;23.60;46.90;;;;;;5035792;27;114244;-81
2023/07/24 00:48:29;;;;;;;5.45;4.05;;;23.70;46.50;;;;;;5053196;27;114217;-81
2023/07/24 00:50:56;;;;;;;5.00;3.67;;;23.80;45.60;;;;;;5051829;27;118217;-81
2023/07/24 00:53:23;;;;;;;6.60;4.38;;;24.00;44.70;;;;;;5069998;27;115109;-80
2023/07/24 00:55:50;;;;;;;5.10;3.67;;;24.10;45.40;;;;;;5071067;27;115009;-80
2023/07/24 00:58:17;;;;;;;4.60;3.50;;;24.30;44.30;;;;;;5071169;27;114246;-80
2023/07/24 01:00:45;;;;;;;6.38;4.00;;;24.40;43.70;;;;;;5051949;27;114862;-80
2023/07/24 01:03:12;;;;;;;7.30;4.38;;;24.50;44.30;;;;;;5035222;27;114531;-80
2023/07/24 01:05:40;;;;;;;6.07;4.35;;;24.70;45.70;;;;;;5052891;27;114176;-81
2023/07/24 01:08:08;;;;;;;7.18;4.32;;;24.60;44.00;;;;;;5071143;27;114185;-81
2023/07/24 01:10:35;;;;;;;6.85;4.32;;;24.60;45.70;;;;;;5051641;27;114994;-80
2023/07/24 01:13:06;;;;;;;4.90;3.53;;;24.50;46.00;;;;;;5070128;27;115146;-81
2023/07/24 01:16:13;;;;;;;5.65;4.22;;;24.50;43.90;;;;;;5052674;27;114205;-80
2023/07/24 01:18:40;;;;;;;5.57;3.90;;;24.60;44.00;;;;;;4967951;28;114785;-81
2023/07/24 01:21:09;;;;;;;6.03;3.95;;;24.70;43.60;;;;;;5049189;27;114901;-80
2023/07/24 01:24:06;;;;;;;6.10;4.10;;;24.80;43.80;;;;;;5034801;27;114674;-81
2023/07/24 01:26:33;;;;;;;5.30;3.90;;;24.90;43.30;;;;;;5052263;27;114226;-79
2023/07/24 01:29:00;;;;;;;6.03;4.05;;;24.90;43.20;;;;;;5019354;27;114177;-80
2023/07/24 01:31:27;;;;;;;5.00;3.50;;;24.90;45.00;;;;;;5069758;27;114819;-79
2023/07/24 01:33:54;;;;;;;7.82;3.95;;;24.90;43.20;;;;;;5050897;27;114947;-80
2023/07/24 01:36:21;;;;;;;6.20;4.65;;;24.90;43.50;;;;;;5035326;27;114132;-80
2023/07/24 01:38:48;;;;;;;5.85;4.32;;;25.00;45.80;;;;;;5035903;27;114567;-80
2023/07/24 01:41:15;;;;;;;5.40;3.65;;;25.00;43.90;;;;;;5017925;27;115011;-80
2023/07/24 01:43:43;;;;;;;5.47;4.10;;;25.00;43.40;;;;;;5051240;27;114850;-80
2023/07/24 01:46:10;;;;;;;5.30;4.18;;;25.00;43.40;;;;;;5031462;27;114518;-81
2023/07/24 01:48:37;;;;;;;4.90;3.97;;;25.00;43.90;;;;;;5050018;27;114469;-80
2023/07/24 01:51:04;;;;;;;5.32;4.10;;;25.00;43.00;;;;;;5048838;27;114902;-80
2023/07/24 01:53:31;;;;;;;6.32;4.30;;;25.00;43.10;;;;;;5047711;27;114691;-80
2023/07/24 01:55:59;;;;;;;6.53;4.43;;;25.10;43.20;;;;;;5015040;27;114333;-80
2023/07/24 01:58:26;;;;;;;4.68;3.67;;;25.10;43.40;;;;;;5048219;27;114494;-81
2023/07/24 02:00:56;;;;;;;5.25;3.83;;;25.20;42.80;;;;;;5047418;27;115229;-81
2023/07/24 02:03:23;;;;;;;5.63;4.00;;;25.10;42.90;;;;;;5048878;27;115156;-81
2023/07/24 02:05:51;;;;;;;6.18;4.28;;;25.10;42.90;;;;;;5048335;27;114255;-80
2023/07/24 02:08:18;;;;;;;6.13;4.13;;;25.10;43.90;;;;;;5049820;27;114215;-81
2023/07/24 02:10:48;;;;;;;5.60;4.20;;;25.20;43.20;;;;;;5030307;27;114988;-80
2023/07/24 02:13:15;;;;;;;5.07;3.88;;;25.20;44.70;;;;;;5030773;27;114577;-80
2023/07/24 02:15:48;;;;;;;6.68;4.68;;;25.10;43.20;;;;;;5016463;27;114465;-80
2023/07/24 02:18:15;;;;;;;8.10;5.00;;;25.10;46.60;;;;;;5048386;27;114389;-80
2023/07/24 02:20:49;;;;;;;5.97;4.43;;;24.80;46.00;;;;;;5048157;27;116323;-80
2023/07/24 02:23:17;;;;;;;7.32;3.90;;;24.70;44.80;;;;;;5048324;27;114650;-81
2023/07/24 02:25:44;;;;;;;7.20;5.00;;;24.70;44.80;;;;;;5014569;27;114517;-80
2023/07/24 02:28:11;;;;;;;7.13;5.03;;;24.70;47.90;;;;;;5049566;27;114349;-81
2023/07/24 02:30:39;;;;;;;5.18;3.78;;;24.50;48.00;;;;;;5048134;27;114920;-80
2023/07/24 02:33:06;;;;;;;6.10;4.55;;;24.40;45.60;;;;;;5048247;27;115080;-81
2023/07/24 02:35:40;;;;;;;7.15;4.90;;;24.40;46.60;;;;;;5047475;27;114280;-81
2023/07/24 02:38:07;;;;;;;;;;;24.50;46.80;;;;;;5031589;27;114414;-81
2023/07/24 02:40:35;;;;;;;5.78;4.38;;;24.30;45.80;;;;;;5046878;27;115072;-80
2023/07/24 02:43:02;;;;;;;7.03;4.07;;;24.30;47.00;;;;;;5013357;27;115170;-80
2023/07/24 02:45:29;;;;;;;6.13;4.15;;;24.40;46.50;;;;;;5031143;27;114127;-80
2023/07/24 02:47:56;;;;;;;10.85;6.07;;;24.50;45.50;;;;;;5049338;27;114276;-80
2023/07/24 02:50:23;;;;;;;8.05;5.95;;;24.50;48.20;;;;;;5047995;27;114952;-80
2023/07/24 02:52:51;;;;;;;6.07;4.63;;;24.50;48.70;;;;;;5048032;27;115200;-80
2023/07/24 02:55:18;;;;;;;6.93;5.22;;;24.40;46.00;;;;;;4997473;27;114441;-79
2023/07/24 02:57:45;;;;;;;6.68;4.72;;;24.40;47.40;;;;;;5031324;27;114538;-80
2023/07/24 03:00:12;;;;;;;6.00;4.65;;;24.40;46.00;;;;;;5046286;27;115043;-80
2023/07/24 03:02:40;;;;;;;6.45;4.20;;;24.40;45.80;;;;;;5046092;27;116172;-80
2023/07/24 03:05:07;;;;;;;10.02;5.38;;;24.50;45.40;;;;;;5047030;27;114247;-81
2023/07/24 03:07:34;;;;;;;6.97;4.72;;;24.50;46.50;;;;;;5030610;27;114135;-80
2023/07/24 03:10:02;;;;;;;8.23;5.55;;;24.60;46.30;;;;;;5029728;27;115027;-80
2023/07/24 03:12:30;;;;;;;7.88;5.20;;;24.60;46.90;;;;;;5029395;27;114540;-81
2023/07/24 03:14:57;;;;;;;6.07;4.40;;;24.60;46.90;;;;;;5030441;27;114398;-81
2023/07/24 03:17:24;;;;;;;7.55;5.07;;;24.60;46.00;;;;;;5030659;27;114381;-81
2023/07/24 03:19:51;;;;;;;6.53;4.78;;;24.60;45.80;;;;;;5047354;27;115032;-81
2023/07/24 03:22:18;;;;;;;8.98;6.00;;;24.70;45.50;;;;;;5046246;27;115054;-81
2023/07/24 03:24:45;;;;;;;6.55;5.07;;;24.70;48.70;;;;;;5013282;27;114360;-82
2023/07/24 03:27:13;;;;;;;8.63;5.78;;;24.70;46.60;;;;;;5048777;27;114206;-81
2023/07/24 03:29:40;;;;;;;8.90;5.85;;;24.60;48.50;;;;;;5012570;27;116389;-80
2023/07/24 03:32:08;;;;;;;10.35;6.20;;;24.60;49.00;;;;;;5046250;27;115332;-80
2023/07/24 03:34:35;;;;;;;7.45;5.00;;;24.50;49.30;;;;;;5046281;27;114284;-80
2023/07/24 03:37:02;;;;;;;7.47;4.78;;;24.50;47.00;;;;;;5030540;27;114293;-80
2023/07/24 03:39:30;;;;;;;10.13;5.82;;;24.50;46.20;;;;;;5046001;27;114806;-80
2023/07/24 03:41:57;;;;;;;7.70;5.57;;;24.70;48.90;;;;;;5047078;27;115202;-80
2023/07/24 03:44:24;;;;;;;7.20;4.78;;;24.70;47.80;;;;;;5048183;27;114537;-81
2023/07/24 03:46:52;;;;;;;8.82;6.90;;;24.80;46.60;;;;;;5030274;27;114420;-81
2023/07/24 03:49:19;;;;;;;9.95;6.03;;;24.90;46.90;;;;;;5028958;27;114721;-81
2023/07/24 03:51:46;;;;;;;8.52;5.85;;;25.10;48.00;;;;;;5047150;27;114993;-80
2023/07/24 03:54:13;;;;;;;9.55;5.88;;;25.20;48.00;;;;;;5047703;27;114361;-79
2023/07/24 03:56:40;;;;;;;9.07;5.60;;;25.30;47.70;;;;;;5030089;27;114421;-80
2023/07/24 03:59:07;;;;;;;9.02;5.63;;;25.30;47.10;;;;;;5046889;27;114918;-80
2023/07/24 04:01:34;;;;;;;7.80;5.25;;;25.30;47.80;;;;;;5046923;27;114655;-80
2023/07/24 04:04:01;;;;;;;7.65;5.30;;;25.30;47.90;;;;;;5013198;27;114345;-80
2023/07/24 04:06:28;;;;;;;7.90;5.43;;;25.40;46.90;;;;;;5048253;27;114221;-80
2023/07/24 04:08:57;;;;;;;9.70;5.45;;;25.60;47.20;;;;;;5046965;27;115615;-80
2023/07/24 04:11:24;;;;;;;9.43;5.57;;;25.80;46.90;;;;;;5046915;27;114313;-80
2023/07/24 04:13:51;;;;;;;8.27;5.78;;;25.80;46.80;;;;;;5047556;27;114230;-80
2023/07/24 04:16:18;;;;;;;11.18;6.45;;;25.80;46.80;;;;;;5048190;27;114377;-80
2023/07/24 04:18:45;;;;;;;9.93;5.25;;;25.80;46.60;;;;;;5050468;27;115050;-80
2023/07/24 04:21:12;;;;;;;8.63;4.90;;;25.80;46.50;;;;;;5032189;27;114710;-80
2023/07/24 04:23:39;;;;;;;7.82;4.82;;;25.60;45.80;;;;;;5033326;27;114427;-80
2023/07/24 04:26:06;;;;;;;9.38;5.80;;;25.70;46.10;;;;;;5049798;27;114605;-80
2023/07/24 04:28:33;;;;;;;8.90;5.70;;;25.80;47.10;;;;;;5015335;27;115269;-81
2023/07/24 04:31:01;;;;;;;7.75;5.07;;;25.70;46.70;;;;;;5050388;27;114778;-82
2023/07/24 04:33:28;;;;;;;9.57;5.90;;;25.80;45.80;;;;;;5032676;27;114252;-82
2023/07/24 04:35:56;;;;;;;8.90;5.50;;;25.80;46.40;;;;;;5051230;27;114035;-80
2023/07/24 04:38:24;;;;;;;10.35;6.22;;;25.90;46.90;;;;;;5031754;27;114886;-80
2023/07/24 04:40:51;;;;;;;10.43;5.97;;;25.80;47.00;;;;;;5049981;27;114625;-80
2023/07/24 04:43:18;;;;;;;9.75;5.80;;;25.80;47.40;;;;;;5051064;27;114195;-80
2023/07/24 04:45:45;;;;;;;7.97;4.50;;;25.90;46.60;;;;;;5016339;27;114203;-80
2023/07/24 04:48:12;;;;;;;9.00;6.07;;;26.00;45.80;;;;;;5015285;27;114825;-79
2023/07/24 04:50:39;;;;;;;7.55;5.55;;;26.10;46.90;;;;;;5049826;27;115195;-80
2023/07/24 04:53:06;;;;;;;10.75;5.22;;;26.10;47.00;;;;;;5050871;27;114277;-80
2023/07/24 04:55:33;;;;;;;8.35;5.80;;;26.00;46.20;;;;;;5032989;27;114400;-80
2023/07/24 04:58:00;;;;;;;8.75;5.28;;;26.00;46.20;;;;;;5049897;27;115453;-80
2023/07/24 05:00:27;;;;;;;8.50;5.35;;;26.00;47.50;;;;;;5014954;27;114681;-80
2023/07/24 05:02:54;;;;;;;8.50;5.78;;;26.10;47.40;;;;;;4998710;27;114649;-80
2023/07/24 05:05:21;;;;;;;9.00;6.20;;;26.20;47.20;;;;;;5050700;27;114404;-80
2023/07/24 05:07:48;;;;;;;8.45;5.57;;;26.30;47.40;;;;;;5048231;27;114864;-80
2023/07/24 05:10:15;;;;;;;7.88;5.88;;;26.40;47.30;;;;;;5048315;27;115929;-80
2023/07/24 05:12:42;;;;;;;8.40;5.90;;;26.50;47.20;;;;;;5048981;27;114494;-80
2023/07/24 05:15:09;;;;;;;10.38;6.55;;;26.60;46.80;;;;;;5050366;27;114243;-80
2023/07/24 05:17:36;;;;;;;10.38;6.55;;;26.80;47.00;;;;;;5048995;27;116636;-81
2023/07/24 05:20:04;;;;;;;10.82;6.38;;;27.00;46.70;;;;;;5049503;27;115113;-81
2023/07/24 05:22:32;;;;;;;11.13;7.13;;;27.10;46.20;;;;;;5032448;27;114043;-82
2023/07/24 05:24:59;;;;;;;9.60;6.20;;;27.30;46.10;;;;;;5050433;27;114275;-81
2023/07/24 05:27:26;;;;;;;9.70;6.05;;;27.40;45.80;;;;;;5029948;27;117191;-81
2023/07/24 05:29:53;;;;;;;10.95;6.72;;;27.60;45.50;;;;;;5047702;27;115835;-81
2023/07/24 05:32:22;;;;;;;9.52;6.00;;;27.60;45.70;;;;;;5050120;27;114520;-81
2023/07/24 05:34:50;;;;;;;8.85;6.32;;;27.80;45.30;;;;;;5015319;27;114496;-81
2023/07/24 05:37:17;;;;;;;9.95;6.70;;;28.00;44.70;;;;;;5014379;27;114864;-81
2023/07/24 05:39:44;;;;;;;12.35;6.63;;;28.00;44.80;;;;;;5048886;27;114624;-81
2023/07/24 05:42:11;;;;;;;9.50;5.93;;;28.10;44.50;;;;;;5049971;27;114363;-81
2023/07/24 05:44:38;;;;;;;10.20;6.28;;;28.20;44.80;;;;;;5050435;27;114046;-81
2023/07/24 05:47:05;;;;;;;11.05;5.70;;;28.30;44.60;;;;;;5048921;27;114917;-81
2023/07/24 05:49:32;;;;;;;8.73;5.93;;;28.30;44.30;;;;;;5048685;27;115885;-81
2023/07/24 05:51:59;;;;;;;9.05;6.20;;;28.30;44.50;;;;;;5049783;27;114280;-81
2023/07/24 05:54:26;;;;;;;9.23;6.63;;;28.50;44.30;;;;;;5049957;27;114189;-81
2023/07/24 05:56:53;;;;;;;8.55;6.15;;;28.60;44.30;;;;;;5048773;27;114836;-80
2023/07/24 05:59:21;;;;;;;9.18;6.18;;;28.70;44.10;;;;;;5030804;27;114737;-80
2023/07/24 06:01:48;;;;;;;7.35;5.50;;;28.60;43.90;;;;;;5031673;27;114145;-80
2023/07/24 06:04:15;;;;;;;8.77;5.72;;;28.60;44.40;;;;;;4998432;27;114325;-80
2023/07/24 06:06:45;;;;;;;9.45;5.95;;;28.70;44.40;;;;;;5048628;27;114899;-80
2023/07/24 06:09:13;;;;;;;9.48;5.80;;;28.80;44.40;;;;;;5014661;27;116734;-80
2023/07/24 06:11:40;;;;;;;8.45;5.72;;;28.90;44.20;;;;;;5048209;27;114282;-80
2023/07/24 06:14:07;;;;;;;7.22;5.75;;;29.10;44.00;;;;;;5031742;27;114471;-80
2023/07/24 06:16:34;;;;;;;7.55;5.82;;;29.30;42.80;;;;;;5030264;27;115043;-80
2023/07/24 06:19:01;;;;;;;13.10;6.95;;;29.60;42.00;;;;;;4997328;27;117780;-81
2023/07/24 06:21:28;;;;;;;7.40;5.45;;;29.80;41.40;;;;;;5049260;27;114221;-80
2023/07/24 06:23:56;;;;;;;9.60;5.60;;;29.80;40.80;;;;;;5031338;27;114750;-81
2023/07/24 06:26:23;;;;;;;7.63;6.10;;;29.90;40.30;;;;;;5046924;27;115428;-81
2023/07/24 06:28:50;;;;;;;8.95;6.55;;;30.00;40.60;;;;;;5030023;27;117190;-81
2023/07/24 06:31:17;;;;;;;12.27;7.32;;;30.20;40.00;;;;;;5031255;27;114422;-82
2023/07/24 06:33:44;;;;;;;8.93;6.13;;;30.30;39.90;;;;;;5030859;27;114320;-81
2023/07/24 06:36:13;;;;;;;9.60;6.28;;;30.40;39.40;;;;;;5013183;27;115528;-81
2023/07/24 06:38:42;;;;;;;9.88;6.50;;;30.50;39.20;;;;;;5045892;27;117255;-81
2023/07/24 06:41:09;;;;;;;8.77;6.43;;;30.70;39.10;;;;;;5030332;27;114206;-81
2023/07/24 06:43:36;;;;;;;9.50;5.90;;;30.80;38.70;;;;;;5014599;27;114420;-81
2023/07/24 06:46:03;;;;;;;8.68;5.93;;;30.90;37.00;;;;;;5047845;27;115410;-81
2023/07/24 06:48:32;;;;;;;8.40;6.45;;;30.90;36.30;;;;;;5030004;27;114635;-81
2023/07/24 06:50:59;;;;;;;9.85;7.75;;;30.90;36.10;;;;;;5047598;27;114538;-81
2023/07/24 06:53:26;;;;;;;9.63;6.70;;;31.00;36.80;;;;;;5049126;27;114400;-81
2023/07/24 06:55:53;;;;;;;11.23;7.68;;;31.10;36.90;;;;;;5047877;27;114962;-81
2023/07/24 06:58:20;;;;;;;8.80;6.20;;;31.10;35.00;;;;;;4996473;27;115961;-81
2023/07/24 07:00:47;;;;;;;9.57;6.72;;;31.10;36.10;;;;;;5048499;27;114196;-80
2023/07/24 07:03:14;;;;;;;10.07;6.10;;;31.10;36.30;;;;;;5048748;27;114215;-80
2023/07/24 07:05:43;;;;;;;9.02;6.22;;;31.20;36.10;;;;;;4995944;27;118908;-80
2023/07/24 07:08:11;;;;;;;9.57;6.20;;;31.30;35.30;;;;;;5046424;27;114921;-80
2023/07/24 07:10:38;;;;;;;10.48;8.80;;;31.40;34.30;;;;;;5030519;27;114235;-80
2023/07/24 07:13:05;;;;;;;8.88;6.45;;;31.40;34.00;;;;;;5030807;27;114399;-80
2023/07/24 07:15:32;;;;;;;8.73;6.32;;;31.40;32.70;;;;;;5047538;27;115406;-82
2023/07/24 07:17:59;;;;;;;9.77;6.40;;;31.40;33.10;;;;;;5047501;27;114602;-82
2023/07/24 07:20:26;;;;;;;10.30;6.40;;;31.30;32.80;;;;;;5030246;27;114128;-81
2023/07/24 07:22:53;;;;;;;8.43;6.75;;;31.10;33.30;;;;;;5048654;27;114072;-81
2023/07/24 07:25:20;;;;;;;9.65;6.07;;;30.90;33.40;;;;;;5047307;27;115146;-81
2023/07/24 07:27:47;;;;;;;8.73;6.55;;;30.80;32.60;;;;;;5029383;27;114657;-81
2023/07/24 07:30:14;;;;;;;9.20;6.13;;;30.50;33.30;;;;;;5048145;27;114126;-82
2023/07/24 07:32:42;;;;;;;11.10;6.95;;;30.30;33.40;;;;;;5048429;27;114031;-81
2023/07/24 07:35:09;;;;;;;8.98;6.50;;;30.20;33.60;;;;;;5046466;27;114841;-81
2023/07/24 07:37:36;;;;;;;10.57;6.50;;;30.00;33.60;;;;;;5047191;27;114617;-82
2023/07/24 07:40:04;;;;;;;8.88;5.97;;;29.80;33.80;;;;;;5030075;27;114179;-81
2023/07/24 07:42:34;;;;;;;8.88;6.47;;;29.70;33.70;;;;;;5048215;27;114111;-81
2023/07/24 07:45:05;;;;;;;10.85;6.90;;;29.50;33.80;;;;;;5045675;27;116204;-80
2023/07/24 07:47:32;;;;;;;11.95;6.85;;;29.30;33.90;;;;;;5029254;27;115913;-80
2023/07/24 07:50:00;;;;;;;9.10;6.63;;;29.30;34.10;;;;;;5047747;27;114222;-80
2023/07/24 07:52:27;;;;;;;9.57;6.10;;;29.10;33.90;;;;;;5051773;27;114026;-80
2023/07/24 07:54:54;;;;;;;9.50;6.07;;;29.10;34.30;;;;;;5049226;27;114903;-81
2023/07/24 07:57:23;;;;;;;8.73;6.68;;;29.10;33.30;;;;;;5049322;27;114702;-81
2023/07/24 07:59:50;;;;;;;9.02;6.63;;;29.10;33.50;;;;;;5017045;27;114401;-81
2023/07/24 08:02:20;;;;;;;7.93;6.10;;;29.10;33.40;;;;;;5033810;27;114373;-81
2023/07/24 08:04:47;;;;;;;9.52;6.13;;;29.20;33.80;;;;;;5049109;27;115688;-81
2023/07/24 08:07:17;;;;;;;10.18;7.28;;;29.30;32.90;;;;;;5049000;27;114678;-81
2023/07/24 08:09:46;;;;;;;8.85;6.63;;;29.30;33.30;;;;;;5051333;27;114432;-80
2023/07/24 08:12:13;;;;;;;10.00;7.18;;;29.30;33.00;;;;;;5033556;27;114131;-80
2023/07/24 08:14:43;;;;;;;11.45;7.10;;;29.30;32.80;;;;;;5014648;27;117902;-80
2023/07/24 08:17:10;;;;;;;8.13;6.47;;;29.40;33.20;;;;;;5032910;27;114743;-80
2023/07/24 08:19:37;;;;;;;9.68;6.72;;;29.40;32.80;;;;;;5016014;27;114314;-80
2023/07/24 08:22:05;;;;;;;10.55;7.28;;;29.50;32.80;;;;;;5032936;27;114437;-80
2023/07/24 08:24:35;;;;;;;13.32;6.88;;;29.60;32.20;;;;;;5050205;27;115598;-81
2023/07/24 08:27:02;;;;;;;10.18;7.47;;;29.80;32.20;;;;;;5032003;27;117788;-80
2023/07/24 08:29:30;;;;;;;9.80;6.75;;;29.90;32.80;;;;;;5050834;27;114102;-81
2023/07/24 08:31:57;;;;;;;8.68;6.85;;;30.20;32.70;;;;;;5033132;27;114256;-80
2023/07/24 08:34:25;;;;;;;9.00;6.70;;;30.40;32.20;;;;;;5049482;27;115215;-81
2023/07/24 08:36:52;;;;;;;9.75;6.18;;;30.60;32.00;;;;;;5049116;27;114667;-81
2023/07/24 08:39:21;;;;;;;9.40;7.00;;;30.80;31.60;;;;;;5016490;27;114121;-80
2023/07/24 08:41:49;;;;;;;9.18;6.88;;;30.90;31.80;;;;;;5016761;27;114222;-80
2023/07/24 08:44:16;;;;;;;10.20;6.78;;;30.90;31.00;;;;;;5031817;27;114827;-80
2023/07/24 08:46:45;;;;;;;8.05;6.70;;;30.80;31.20;;;;;;5015309;27;114618;-80
2023/07/24 08:49:13;;;;;;;8.73;6.97;;;30.80;31.00;;;;;;5050977;27;114063;-81
2023/07/24 08:51:43;;;;;;;10.45;7.75;;;30.70;31.30;;;;;;4999841;27;114368;-81
2023/07/24 08:54:12;;;;;;;9.05;7.75;;;30.60;31.10;;;;;;5014963;27;115475;-80
2023/07/24 08:56:46;;;;;;;8.50;6.95;;;30.40;31.70;;;;;;5015288;27;114763;-81
2023/07/24 08:59:14;;;;;;;9.85;7.05;;;30.30;31.60;;;;;;5050671;27;114305;-80
2023/07/24 09:01:41;;;;;;;9.85;6.88;;;30.30;31.60;;;;;;5032970;27;114260;-81
2023/07/24 09:04:08;;;;;;;9.57;7.40;;;30.10;31.60;;;;;;5049079;27;114900;-81
2023/07/24 09:06:35;;;;;;;13.02;9.88;;;30.00;31.50;;;;;;5031930;27;114548;-81
2023/07/24 09:09:03;;;;;;;11.23;9.48;;;29.90;31.70;;;;;;5015874;27;114396;-81
2023/07/24 09:11:30;;;;;;;11.60;9.07;;;29.90;31.80;;;;;;5015727;27;114539;-81
2023/07/24 09:13:57;;;;;;;12.73;9.73;;;29.80;32.10;;;;;;5031263;27;116385;-81
2023/07/24 09:16:26;;;;;;;9.15;7.55;;;29.80;32.20;;;;;;5049115;27;115885;-81
2023/07/24 09:18:53;;;;;;;11.07;7.75;;;29.60;31.50;;;;;;5032470;27;114295;-80
2023/07/24 09:21:30;;;;;;;10.82;8.32;;;29.50;31.50;;;;;;5032917;27;114402;-80
2023/07/24 09:24:08;;;;;;;9.95;7.68;;;29.40;32.30;;;;;;5013814;27;115759;-80
2023/07/24 09:26:35;;;;;;;10.00;7.18;;;29.30;32.30;;;;;;5016333;27;115375;-80
2023/07/24 09:29:02;;;;;;;12.15;7.95;;;29.30;32.00;;;;;;5029222;27;114408;-80
2023/07/24 09:31:35;;;;;;;10.80;8.10;;;29.10;32.00;;;;;;5032479;27;114353;-80
2023/07/24 09:34:03;;;;;;;10.10;6.88;;;29.10;31.90;;;;;;5013918;27;115205;-80
2023/07/24 09:36:38;;;;;;;9.93;7.93;;;29.00;32.20;;;;;;5031063;27;114618;-80
2023/07/24 09:39:06;;;;;;;9.48;7.45;;;29.10;32.10;;;;;;5050252;27;114193;-80
2023/07/24 09:41:33;;;;;;;10.38;8.32;;;29.00;32.30;;;;;;5031958;27;114388;-80
2023/07/24 09:44:00;;;;;;;11.13;7.80;;;29.30;32.70;;;;;;5031164;27;115073;-80
2023/07/24 09:46:31;;;;;;;10.98;7.80;;;29.40;32.90;;;;;;5048972;27;114650;-81
2023/07/24 09:54:27;;;;;;;9.38;7.13;;;29.80;32.50;;;;;;5069816;27;114786;-81
2023/07/24 09:56:55;;;;;;;10.77;7.57;;;29.80;32.50;;;;;;5039266;27;115210;-81
2023/07/24 09:59:41;;;;;;;11.07;7.50;;;29.80;32.50;;;;;;5053809;27;114775;-81
2023/07/24 10:02:09;;;;;;;10.43;8.27;;;29.80;32.10;;;;;;5051675;27;114504;-81
2023/07/24 10:04:37;;;;;;;25.58;7.88;;;29.90;32.60;;;;;;5034993;27;114334;-81
2023/07/24 10:07:05;;;;;;;11.60;8.00;;;30.10;33.00;;;;;;5034031;27;115001;-81
2023/07/24 10:09:33;;;;;;;11.35;8.13;;;30.30;32.30;;;;;;5034052;27;114984;-81
2023/07/24 10:12:00;;;;;;;12.02;8.68;;;30.30;32.40;;;;;;5034657;27;114239;-81
2023/07/24 10:14:27;;;;;;;12.18;8.55;;;30.30;32.60;;;;;;5033582;27;114403;-81
2023/07/24 10:16:55;;;;;;;12.88;8.68;;;30.30;32.60;;;;;;5068821;27;114538;-81
2023/07/24 10:19:22;;;;;;;13.43;8.77;;;30.30;32.30;;;;;;5034099;27;115815;-81
2023/07/24 10:21:50;;;;;;;9.93;7.72;;;30.30;32.30;;;;;;5069675;27;114303;-82
2023/07/24 10:24:17;;;;;;;12.00;8.82;;;30.30;32.30;;;;;;5051914;27;114209;-80
2023/07/24 10:27:05;;;;;;;12.48;8.65;;;30.30;31.80;;;;;;5053074;27;115117;-80
2023/07/24 10:29:36;;;;;;;11.75;8.02;;;30.30;32.60;;;;;;5017292;27;114567;-81
2023/07/24 10:32:04;;;;;;;12.43;8.85;;;30.50;32.60;;;;;;5034448;27;114410;-81
2023/07/24 10:34:38;;;;;;;10.85;8.45;;;30.80;31.70;;;;;;5069200;27;114207;-81
2023/07/24 10:37:08;;;;;;;11.50;8.18;;;30.90;31.80;;;;;;5068585;27;115261;-82
2023/07/24 10:39:39;;;;;;;12.20;8.65;;;31.00;31.40;;;;;;5068445;27;114498;-81
2023/07/24 10:42:08;;;;;;;11.75;9.15;;;31.20;30.80;;;;;;5049938;27;114267;-80
2023/07/24 10:44:36;;;;;;;12.13;8.45;;;31.30;30.60;;;;;;5051599;27;114248;-80
2023/07/24 10:47:03;;;;;;;10.40;8.60;;;31.30;30.40;;;;;;5050408;27;115040;-80
2023/07/24 10:49:30;;;;;;;10.30;8.27;;;31.30;30.20;;;;;;5049968;27;117341;-81
2023/07/24 10:51:58;;;;;;;11.90;9.40;;;31.30;30.40;;;;;;5069124;27;114270;-81
2023/07/24 10:54:25;;;;;;;13.65;9.32;;;31.30;30.80;;;;;;5069397;27;114075;-81
2023/07/24 10:57:02;;;;;;;11.73;9.02;;;31.30;30.60;;;;;;5068224;27;115576;-82
2023/07/24 10:59:39;;;;;;;14.05;9.35;;;31.30;30.10;;;;;;5049919;27;114735;-81
2023/07/24 11:02:07;;;;;;;11.05;8.27;;;31.30;31.00;;;;;;5034693;27;114415;-82
2023/07/24 11:04:34;;;;;;;12.60;8.93;;;31.30;30.20;;;;;;5017441;27;114479;-81
2023/07/24 11:07:12;;;;;;;10.80;8.52;;;31.40;29.80;;;;;;5049745;27;115226;-81
2023/07/24 11:09:44;;;;;;;10.10;8.43;;;31.30;29.90;;;;;;5036009;27;114614;-81
2023/07/24 11:12:13;;;;;;;13.63;9.18;;;31.30;30.30;;;;;;5068772;27;114192;-81
2023/07/24 11:14:50;;;;;;;10.13;8.23;;;31.30;30.10;;;;;;5069084;27;114403;-81
2023/07/24 11:17:17;;;;;;;11.77;8.88;;;31.30;30.50;;;;;;5067745;27;114943;-80
2023/07/24 11:19:44;;;;;;;10.80;9.50;;;31.20;30.40;;;;;;5049842;27;114910;-81
2023/07/24 11:22:12;;;;;;;11.23;8.85;;;31.20;30.40;;;;;;5068804;27;114333;-81
2023/07/24 11:24:43;;;;;;;10.85;8.68;;;31.10;30.70;;;;;;5068764;27;114066;-81
2023/07/24 11:27:13;;;;;;;9.88;8.45;;;31.00;30.70;;;;;;5049175;27;115560;-81
2023/07/24 11:29:47;;;;;;;12.55;9.35;;;30.90;31.00;;;;;;5049846;27;115437;-81
2023/07/24 11:32:20;;;;;;;10.27;8.70;;;30.80;31.60;;;;;;5034702;27;114441;-81
2023/07/24 11:34:50;;;;;;;11.40;9.13;;;30.80;31.40;;;;;;5052335;27;114299;-80
2023/07/24 11:37:36;;;;;;;10.35;8.48;;;30.70;31.80;;;;;;5026387;28;114828;-79
2023/07/24 11:40:10;;;;;;;11.38;8.07;;;30.60;32.80;;;;;;5024276;28;114171;-80
2023/07/24 11:42:42;;;;;;;11.75;7.80;;;30.50;33.70;;;;;;5024115;28;114907;-81
2023/07/24 11:45:09;;;;;;;12.57;8.13;;;30.30;34.30;;;;;;5056763;27;115142;-82
2023/07/24 11:47:49;;;;;;;14.07;8.88;;;30.30;34.80;;;;;;5006973;28;114526;-81
2023/07/24 11:50:17;;;;;;;10.02;8.40;;;30.20;34.80;;;;;;5024138;28;114115;-81
2023/07/24 11:52:46;;;;;;;12.48;9.38;;;30.10;35.50;;;;;;5039570;27;114850;-80
2023/07/24 11:55:14;;;;;;;12.23;8.88;;;30.10;35.90;;;;;;5022812;28;115967;-81
2023/07/24 11:57:41;;;;;;;20.40;9.52;;;30.10;36.00;;;;;;5023520;28;114454;-81
2023/07/24 12:00:20;;;;;;;11.18;8.50;;;30.20;35.90;;;;;;5025136;27;114256;-82
2023/07/24 12:02:47;;;;;;;11.57;7.43;;;30.30;35.60;;;;;;5022528;28;115388;-82
2023/07/24 12:05:14;;;;;;;11.15;8.43;;;30.40;35.40;;;;;;5022521;28;115962;-82
2023/07/24 12:07:43;;;;;;;11.93;8.60;;;30.60;35.00;;;;;;5006764;28;114432;-82
2023/07/24 12:10:10;;;;;;;10.57;7.80;;;30.70;34.80;;;;;;5023683;28;114524;-82
2023/07/24 12:12:43;;;;;;;13.75;8.18;;;30.80;34.90;;;;;;5022427;28;117995;-81
2023/07/24 12:15:14;;;;;;;12.15;8.80;;;30.80;34.30;;;;;;5022283;28;114832;-81
2023/07/24 12:17:41;;;;;;;13.00;9.07;;;30.80;33.80;;;;;;5024709;27;114754;-81
2023/07/24 12:20:12;;;;;;;11.88;8.88;;;30.90;34.50;;;;;;5023533;28;114187;-81
2023/07/24 12:22:39;;;;;;;10.48;8.60;;;31.00;35.00;;;;;;5023409;28;114819;-81
2023/07/24 12:25:06;;;;;;;11.73;8.68;;;31.10;33.20;;;;;;5023520;28;114657;-81
2023/07/24 12:27:33;;;;;;;10.85;9.00;;;31.20;33.50;;;;;;5006607;28;114249;-81
2023/07/24 12:30:00;;;;;;;10.80;8.98;;;31.20;33.20;;;;;;5024642;28;114087;-81
2023/07/24 12:32:28;;;;;;;11.20;8.27;;;31.30;32.70;;;;;;5022408;28;115168;-81
2023/07/24 12:34:55;;;;;;;10.00;8.75;;;31.40;32.50;;;;;;5022218;28;114689;-81
2023/07/24 12:37:22;;;;;;;11.25;9.20;;;31.40;32.20;;;;;;5022467;28;114538;-81
2023/07/24 12:39:49;;;;;;;12.23;9.05;;;31.40;31.40;;;;;;5024109;27;114511;-81
2023/07/24 12:42:16;;;;;;;9.88;8.88;;;31.50;31.60;;;;;;5022087;28;114907;-81
2023/07/24 12:44:43;;;;;;;11.45;10.10;;;31.40;31.50;;;;;;5004700;28;117115;-80